sensor_id;sensor_type;location;lat;lon;timestamp;P1;durP1;ratioP1;P2;durP2;ratioP2
1214;SDS011;597;51.998;5.880;2022-07-23T00:02:11;6.73;;;4.50;;
1214;SDS011;597;51.998;5.880;2022-07-23T00:04:37;6.60;;;5.23;;
1214;SDS011;597;51.998;5.880;2022-07-23T00:07:02;6.50;;;4.50;;
1214;SDS011;597;51.998;5.880;2022-07-23T00:09:27;6.53;;;4.80;;
1214;SDS011;597;51.998;5.880;2022-07-23T00:11:53;6.93;;;4.63;;
1214;SDS011;597;51.998;5.880;2022-07-23T00:14:18;5.90;;;5.30;;
1214;SDS011;597;51.998;5.880;2022-07-23T00:16:44;11.10;;;5.53;;
1214;SDS011;597;51.998;5.880;2022-07-23T00:19:09;5.40;;;4.90;;
1214;SDS011;597;51.998;5.880;2022-07-23T00:21:34;5.90;;;5.30;;
1214;SDS011;597;51.998;5.880;2022-07-23T00:23:59;6.93;;;5.00;;
1214;SDS011;597;51.998;5.880;2022-07-23T00:26:25;9.93;;;6.33;;
1214;SDS011;597;51.998;5.880;2022-07-23T00:28:50;5.47;;;4.90;;
1214;SDS011;597;51.998;5.880;2022-07-23T00:31:15;7.13;;;5.60;;
1214;SDS011;597;51.998;5.880;2022-07-23T00:33:40;6.70;;;5.50;;
1214;SDS011;597;51.998;5.880;2022-07-23T00:36:05;7.53;;;5.30;;
1214;SDS011;597;51.998;5.880;2022-07-23T00:38:31;6.60;;;5.07;;
1214;SDS011;597;51.998;5.880;2022-07-23T00:40:56;7.87;;;5.47;;
1214;SDS011;597;51.998;5.880;2022-07-23T00:43:21;12.07;;;5.53;;
1214;SDS011;597;51.998;5.880;2022-07-23T00:45:48;7.27;;;5.50;;
1214;SDS011;597;51.998;5.880;2022-07-23T00:48:13;8.13;;;6.27;;
1214;SDS011;597;51.998;5.880;2022-07-23T00:50:38;7.00;;;5.60;;
1214;SDS011;597;51.998;5.880;2022-07-23T00:53:04;9.03;;;5.97;;
1214;SDS011;597;51.998;5.880;2022-07-23T00:55:30;9.23;;;6.50;;
1214;SDS011;597;51.998;5.880;2022-07-23T00:57:55;7.20;;;6.47;;
1214;SDS011;597;51.998;5.880;2022-07-23T01:00:21;9.17;;;6.20;;
1214;SDS011;597;51.998;5.880;2022-07-23T01:02:46;8.00;;;6.67;;
1214;SDS011;597;51.998;5.880;2022-07-23T01:05:11;8.07;;;5.60;;
1214;SDS011;597;51.998;5.880;2022-07-23T01:07:36;8.90;;;6.30;;
1214;SDS011;597;51.998;5.880;2022-07-23T01:10:02;6.17;;;5.23;;
1214;SDS011;597;51.998;5.880;2022-07-23T01:12:28;7.50;;;5.70;;
1214;SDS011;597;51.998;5.880;2022-07-23T01:14:57;8.03;;;5.97;;
1214;SDS011;597;51.998;5.880;2022-07-23T01:17:23;6.60;;;6.00;;
1214;SDS011;597;51.998;5.880;2022-07-23T01:19:48;11.50;;;5.97;;
1214;SDS011;597;51.998;5.880;2022-07-23T01:22:13;6.80;;;6.10;;
1214;SDS011;597;51.998;5.880;2022-07-23T01:24:39;10.17;;;6.20;;
1214;SDS011;597;51.998;5.880;2022-07-23T01:27:04;10.03;;;6.50;;
1214;SDS011;597;51.998;5.880;2022-07-23T01:29:30;10.23;;;7.53;;
1214;SDS011;597;51.998;5.880;2022-07-23T01:31:55;7.57;;;6.27;;
1214;SDS011;597;51.998;5.880;2022-07-23T01:34:21;11.57;;;7.40;;
1214;SDS011;597;51.998;5.880;2022-07-23T01:36:46;6.83;;;5.97;;
1214;SDS011;597;51.998;5.880;2022-07-23T01:39:12;7.87;;;7.00;;
1214;SDS011;597;51.998;5.880;2022-07-23T01:41:37;8.23;;;7.20;;
1214;SDS011;597;51.998;5.880;2022-07-23T01:44:02;15.50;;;7.00;;
1214;SDS011;597;51.998;5.880;2022-07-23T01:46:27;10.00;;;6.20;;
1214;SDS011;597;51.998;5.880;2022-07-23T01:48:53;16.63;;;7.30;;
1214;SDS011;597;51.998;5.880;2022-07-23T01:51:18;7.90;;;6.83;;
1214;SDS011;597;51.998;5.880;2022-07-23T01:53:43;8.43;;;7.53;;
1214;SDS011;597;51.998;5.880;2022-07-23T01:56:08;8.17;;;6.97;;
1214;SDS011;597;51.998;5.880;2022-07-23T01:58:34;9.30;;;7.27;;
1214;SDS011;597;51.998;5.880;2022-07-23T02:00:59;10.83;;;6.63;;
1214;SDS011;597;51.998;5.880;2022-07-23T02:03:24;11.77;;;7.00;;
1214;SDS011;597;51.998;5.880;2022-07-23T02:05:50;6.83;;;5.97;;
1214;SDS011;597;51.998;5.880;2022-07-23T02:08:15;11.23;;;6.90;;
1214;SDS011;597;51.998;5.880;2022-07-23T02:10:40;8.50;;;6.50;;
1214;SDS011;597;51.998;5.880;2022-07-23T02:13:06;11.03;;;6.50;;
1214;SDS011;597;51.998;5.880;2022-07-23T02:15:31;9.53;;;7.00;;
1214;SDS011;597;51.998;5.880;2022-07-23T02:17:56;9.63;;;7.17;;
1214;SDS011;597;51.998;5.880;2022-07-23T02:20:22;11.00;;;6.20;;
1214;SDS011;597;51.998;5.880;2022-07-23T02:22:47;7.60;;;6.80;;
1214;SDS011;597;51.998;5.880;2022-07-23T02:25:12;10.00;;;6.20;;
1214;SDS011;597;51.998;5.880;2022-07-23T02:27:38;8.00;;;6.60;;
1214;SDS011;597;51.998;5.880;2022-07-23T02:30:03;8.73;;;6.60;;
1214;SDS011;597;51.998;5.880;2022-07-23T02:32:29;15.90;;;7.57;;
1214;SDS011;597;51.998;5.880;2022-07-23T02:34:54;8.30;;;6.30;;
1214;SDS011;597;51.998;5.880;2022-07-23T02:37:19;9.80;;;6.87;;
1214;SDS011;597;51.998;5.880;2022-07-23T02:39:44;7.90;;;5.90;;
1214;SDS011;597;51.998;5.880;2022-07-23T02:42:10;10.13;;;6.43;;
1214;SDS011;597;51.998;5.880;2022-07-23T02:44:35;16.87;;;7.30;;
1214;SDS011;597;51.998;5.880;2022-07-23T02:47:00;11.13;;;7.23;;
1214;SDS011;597;51.998;5.880;2022-07-23T02:49:25;12.03;;;6.30;;
1214;SDS011;597;51.998;5.880;2022-07-23T02:51:51;7.67;;;6.37;;
1214;SDS011;597;51.998;5.880;2022-07-23T02:54:16;18.23;;;6.03;;
1214;SDS011;597;51.998;5.880;2022-07-23T02:56:42;7.50;;;6.30;;
1214;SDS011;597;51.998;5.880;2022-07-23T02:59:07;8.90;;;5.70;;
1214;SDS011;597;51.998;5.880;2022-07-23T03:01:32;10.97;;;6.47;;
1214;SDS011;597;51.998;5.880;2022-07-23T03:03:57;7.50;;;5.80;;
1214;SDS011;597;51.998;5.880;2022-07-23T03:06:22;8.17;;;6.03;;
1214;SDS011;597;51.998;5.880;2022-07-23T03:08:48;8.00;;;5.50;;
1214;SDS011;597;51.998;5.880;2022-07-23T03:11:13;7.67;;;5.87;;
1214;SDS011;597;51.998;5.880;2022-07-23T03:13:38;7.17;;;5.33;;
1214;SDS011;597;51.998;5.880;2022-07-23T03:16:04;11.20;;;5.60;;
1214;SDS011;597;51.998;5.880;2022-07-23T03:18:29;8.77;;;6.30;;
1214;SDS011;597;51.998;5.880;2022-07-23T03:20:54;7.87;;;6.50;;
1214;SDS011;597;51.998;5.880;2022-07-23T03:23:20;7.33;;;5.70;;
1214;SDS011;597;51.998;5.880;2022-07-23T03:25:45;10.30;;;6.37;;
1214;SDS011;597;51.998;5.880;2022-07-23T03:28:13;10.90;;;6.40;;
1214;SDS011;597;51.998;5.880;2022-07-23T03:30:38;10.50;;;6.40;;
1214;SDS011;597;51.998;5.880;2022-07-23T03:33:03;11.00;;;5.97;;
1214;SDS011;597;51.998;5.880;2022-07-23T03:35:29;8.87;;;5.63;;
1214;SDS011;597;51.998;5.880;2022-07-23T03:37:54;16.90;;;6.93;;
1214;SDS011;597;51.998;5.880;2022-07-23T03:40:19;8.27;;;5.63;;
1214;SDS011;597;51.998;5.880;2022-07-23T03:42:44;7.90;;;5.57;;
1214;SDS011;597;51.998;5.880;2022-07-23T03:45:10;9.77;;;5.77;;
1214;SDS011;597;51.998;5.880;2022-07-23T03:47:36;7.97;;;6.33;;
1214;SDS011;597;51.998;5.880;2022-07-23T03:50:01;8.33;;;6.10;;
1214;SDS011;597;51.998;5.880;2022-07-23T03:52:26;12.60;;;7.20;;
1214;SDS011;597;51.998;5.880;2022-07-23T03:54:52;7.60;;;6.83;;
1214;SDS011;597;51.998;5.880;2022-07-23T03:57:17;7.60;;;5.83;;
1214;SDS011;597;51.998;5.880;2022-07-23T03:59:42;9.33;;;6.37;;
1214;SDS011;597;51.998;5.880;2022-07-23T04:02:07;9.50;;;7.10;;
1214;SDS011;597;51.998;5.880;2022-07-23T04:04:32;10.17;;;6.97;;
1214;SDS011;597;51.998;5.880;2022-07-23T04:06:57;9.93;;;6.50;;
1214;SDS011;597;51.998;5.880;2022-07-23T04:09:23;11.90;;;6.13;;
1214;SDS011;597;51.998;5.880;2022-07-23T04:11:48;8.87;;;7.37;;
1214;SDS011;597;51.998;5.880;2022-07-23T04:14:13;9.77;;;6.73;;
1214;SDS011;597;51.998;5.880;2022-07-23T04:16:38;8.20;;;6.60;;
1214;SDS011;597;51.998;5.880;2022-07-23T04:19:03;9.50;;;7.13;;
1214;SDS011;597;51.998;5.880;2022-07-23T04:21:29;8.53;;;6.67;;
1214;SDS011;597;51.998;5.880;2022-07-23T04:23:54;19.90;;;8.17;;
1214;SDS011;597;51.998;5.880;2022-07-23T04:26:19;8.80;;;6.53;;
1214;SDS011;597;51.998;5.880;2022-07-23T04:28:46;14.50;;;7.40;;
1214;SDS011;597;51.998;5.880;2022-07-23T04:31:11;8.90;;;6.47;;
1214;SDS011;597;51.998;5.880;2022-07-23T04:33:36;9.07;;;7.20;;
1214;SDS011;597;51.998;5.880;2022-07-23T04:36:02;10.20;;;7.73;;
1214;SDS011;597;51.998;5.880;2022-07-23T04:38:27;10.10;;;7.20;;
1214;SDS011;597;51.998;5.880;2022-07-23T04:40:52;7.33;;;6.43;;
1214;SDS011;597;51.998;5.880;2022-07-23T04:43:18;9.50;;;7.00;;
1214;SDS011;597;51.998;5.880;2022-07-23T04:45:43;20.93;;;7.50;;
1214;SDS011;597;51.998;5.880;2022-07-23T04:48:08;7.80;;;6.50;;
1214;SDS011;597;51.998;5.880;2022-07-23T04:50:33;10.63;;;7.07;;
1214;SDS011;597;51.998;5.880;2022-07-23T04:52:59;8.07;;;6.53;;
1214;SDS011;597;51.998;5.880;2022-07-23T04:55:24;10.67;;;7.20;;
1214;SDS011;597;51.998;5.880;2022-07-23T04:57:49;8.13;;;6.70;;
1214;SDS011;597;51.998;5.880;2022-07-23T05:00:14;9.53;;;7.90;;
1214;SDS011;597;51.998;5.880;2022-07-23T05:02:39;8.80;;;6.73;;
1214;SDS011;597;51.998;5.880;2022-07-23T05:05:05;15.00;;;8.07;;
1214;SDS011;597;51.998;5.880;2022-07-23T05:07:30;11.10;;;7.40;;
1214;SDS011;597;51.998;5.880;2022-07-23T05:09:55;15.07;;;7.03;;
1214;SDS011;597;51.998;5.880;2022-07-23T05:12:20;9.77;;;7.70;;
1214;SDS011;597;51.998;5.880;2022-07-23T05:14:46;12.63;;;8.57;;
1214;SDS011;597;51.998;5.880;2022-07-23T05:17:11;7.60;;;6.80;;
1214;SDS011;597;51.998;5.880;2022-07-23T05:19:36;13.27;;;8.00;;
1214;SDS011;597;51.998;5.880;2022-07-23T05:22:01;11.30;;;7.00;;
1214;SDS011;597;51.998;5.880;2022-07-23T05:24:26;9.33;;;7.50;;
1214;SDS011;597;51.998;5.880;2022-07-23T05:26:52;8.93;;;7.07;;
1214;SDS011;597;51.998;5.880;2022-07-23T05:29:17;8.30;;;7.23;;
1214;SDS011;597;51.998;5.880;2022-07-23T05:31:42;9.60;;;6.97;;
1214;SDS011;597;51.998;5.880;2022-07-23T05:34:07;11.60;;;7.20;;
1214;SDS011;597;51.998;5.880;2022-07-23T05:36:32;8.77;;;7.10;;
1214;SDS011;597;51.998;5.880;2022-07-23T05:38:58;9.27;;;6.90;;
1214;SDS011;597;51.998;5.880;2022-07-23T05:41:23;8.73;;;7.50;;
1214;SDS011;597;51.998;5.880;2022-07-23T05:43:49;10.70;;;7.80;;
1214;SDS011;597;51.998;5.880;2022-07-23T05:46:14;8.73;;;6.43;;
1214;SDS011;597;51.998;5.880;2022-07-23T05:48:39;8.10;;;6.40;;
1214;SDS011;597;51.998;5.880;2022-07-23T05:51:04;12.07;;;5.90;;
1214;SDS011;597;51.998;5.880;2022-07-23T05:53:31;7.23;;;6.53;;
1214;SDS011;597;51.998;5.880;2022-07-23T05:55:56;7.90;;;5.43;;
1214;SDS011;597;51.998;5.880;2022-07-23T05:58:22;8.53;;;6.00;;
1214;SDS011;597;51.998;5.880;2022-07-23T06:00:47;9.67;;;5.80;;
1214;SDS011;597;51.998;5.880;2022-07-23T06:03:12;7.90;;;6.60;;
1214;SDS011;597;51.998;5.880;2022-07-23T06:05:37;6.90;;;5.13;;
1214;SDS011;597;51.998;5.880;2022-07-23T06:08:02;4.60;;;4.20;;
1214;SDS011;597;51.998;5.880;2022-07-23T06:10:28;9.87;;;5.00;;
1214;SDS011;597;51.998;5.880;2022-07-23T06:12:53;5.73;;;4.13;;
1214;SDS011;597;51.998;5.880;2022-07-23T06:15:18;6.70;;;4.20;;
1214;SDS011;597;51.998;5.880;2022-07-23T06:17:43;17.63;;;4.97;;
1214;SDS011;597;51.998;5.880;2022-07-23T06:20:09;4.60;;;3.77;;
1214;SDS011;597;51.998;5.880;2022-07-23T06:22:34;5.57;;;4.00;;
1214;SDS011;597;51.998;5.880;2022-07-23T06:25:00;4.67;;;3.13;;
1214;SDS011;597;51.998;5.880;2022-07-23T06:27:25;4.03;;;3.50;;
1214;SDS011;597;51.998;5.880;2022-07-23T06:29:50;3.70;;;3.30;;
1214;SDS011;597;51.998;5.880;2022-07-23T06:32:15;14.13;;;5.27;;
1214;SDS011;597;51.998;5.880;2022-07-23T06:34:40;3.70;;;3.20;;
1214;SDS011;597;51.998;5.880;2022-07-23T06:37:06;4.87;;;3.20;;
1214;SDS011;597;51.998;5.880;2022-07-23T06:39:31;5.70;;;3.43;;
1214;SDS011;597;51.998;5.880;2022-07-23T06:41:56;6.73;;;3.57;;
1214;SDS011;597;51.998;5.880;2022-07-23T06:44:21;4.80;;;3.93;;
1214;SDS011;597;51.998;5.880;2022-07-23T06:46:47;5.83;;;3.90;;
1214;SDS011;597;51.998;5.880;2022-07-23T06:49:12;5.90;;;3.80;;
1214;SDS011;597;51.998;5.880;2022-07-23T06:51:37;10.53;;;4.00;;
1214;SDS011;597;51.998;5.880;2022-07-23T06:54:03;15.40;;;4.20;;
1214;SDS011;597;51.998;5.880;2022-07-23T06:56:28;10.57;;;5.27;;
1214;SDS011;597;51.998;5.880;2022-07-23T06:58:53;8.47;;;4.90;;
1214;SDS011;597;51.998;5.880;2022-07-23T07:01:19;9.23;;;4.43;;
1214;SDS011;597;51.998;5.880;2022-07-23T07:03:44;5.87;;;4.33;;
1214;SDS011;597;51.998;5.880;2022-07-23T07:06:09;6.73;;;4.03;;
1214;SDS011;597;51.998;5.880;2022-07-23T07:08:35;7.70;;;4.30;;
1214;SDS011;597;51.998;5.880;2022-07-23T07:11:00;8.90;;;4.10;;
1214;SDS011;597;51.998;5.880;2022-07-23T07:13:25;7.97;;;4.40;;
1214;SDS011;597;51.998;5.880;2022-07-23T07:15:50;4.50;;;3.80;;
1214;SDS011;597;51.998;5.880;2022-07-23T07:18:16;9.10;;;3.87;;
1214;SDS011;597;51.998;5.880;2022-07-23T07:20:41;4.90;;;3.87;;
1214;SDS011;597;51.998;5.880;2022-07-23T07:23:06;5.40;;;4.47;;
1214;SDS011;597;51.998;5.880;2022-07-23T07:25:31;6.37;;;3.80;;
1214;SDS011;597;51.998;5.880;2022-07-23T07:27:56;4.23;;;3.60;;
1214;SDS011;597;51.998;5.880;2022-07-23T07:30:22;6.33;;;3.73;;
1214;SDS011;597;51.998;5.880;2022-07-23T07:32:47;9.07;;;4.10;;
1214;SDS011;597;51.998;5.880;2022-07-23T07:35:12;6.20;;;3.90;;
1214;SDS011;597;51.998;5.880;2022-07-23T07:37:37;6.07;;;4.30;;
1214;SDS011;597;51.998;5.880;2022-07-23T07:40:03;5.40;;;4.17;;
1214;SDS011;597;51.998;5.880;2022-07-23T07:42:28;8.03;;;4.13;;
1214;SDS011;597;51.998;5.880;2022-07-23T07:44:53;5.87;;;4.47;;
1214;SDS011;597;51.998;5.880;2022-07-23T07:47:18;5.90;;;4.00;;
1214;SDS011;597;51.998;5.880;2022-07-23T07:49:44;4.03;;;3.63;;
1214;SDS011;597;51.998;5.880;2022-07-23T07:52:09;6.10;;;4.07;;
1214;SDS011;597;51.998;5.880;2022-07-23T07:54:34;4.10;;;3.70;;
1214;SDS011;597;51.998;5.880;2022-07-23T07:57:00;5.60;;;3.93;;
1214;SDS011;597;51.998;5.880;2022-07-23T07:59:25;15.20;;;3.80;;
1214;SDS011;597;51.998;5.880;2022-07-23T08:01:50;5.93;;;4.17;;
1214;SDS011;597;51.998;5.880;2022-07-23T08:04:16;6.87;;;3.40;;
1214;SDS011;597;51.998;5.880;2022-07-23T08:06:41;6.27;;;4.00;;
1214;SDS011;597;51.998;5.880;2022-07-23T08:09:06;6.20;;;4.20;;
1214;SDS011;597;51.998;5.880;2022-07-23T08:11:31;4.30;;;3.90;;
1214;SDS011;597;51.998;5.880;2022-07-23T08:13:57;4.43;;;3.40;;
1214;SDS011;597;51.998;5.880;2022-07-23T08:16:22;6.57;;;3.83;;
1214;SDS011;597;51.998;5.880;2022-07-23T08:18:47;4.43;;;3.60;;
1214;SDS011;597;51.998;5.880;2022-07-23T08:21:12;7.23;;;4.03;;
1214;SDS011;597;51.998;5.880;2022-07-23T08:23:37;8.53;;;4.40;;
1214;SDS011;597;51.998;5.880;2022-07-23T08:26:03;5.20;;;3.40;;
1214;SDS011;597;51.998;5.880;2022-07-23T08:28:28;4.73;;;3.30;;
1214;SDS011;597;51.998;5.880;2022-07-23T08:30:53;7.43;;;3.53;;
1214;SDS011;597;51.998;5.880;2022-07-23T08:33:18;5.03;;;3.67;;
1214;SDS011;597;51.998;5.880;2022-07-23T08:35:48;5.70;;;3.63;;
1214;SDS011;597;51.998;5.880;2022-07-23T08:38:14;4.80;;;4.00;;
1214;SDS011;597;51.998;5.880;2022-07-23T08:40:40;12.80;;;3.87;;
1214;SDS011;597;51.998;5.880;2022-07-23T08:43:07;6.47;;;3.80;;
1214;SDS011;597;51.998;5.880;2022-07-23T08:45:35;5.27;;;3.87;;
1214;SDS011;597;51.998;5.880;2022-07-23T08:48:01;7.00;;;3.60;;
1214;SDS011;597;51.998;5.880;2022-07-23T08:50:27;5.00;;;3.23;;
1214;SDS011;597;51.998;5.880;2022-07-23T08:52:52;5.40;;;3.30;;
1214;SDS011;597;51.998;5.880;2022-07-23T08:55:18;5.30;;;3.83;;
1214;SDS011;597;51.998;5.880;2022-07-23T08:57:44;4.67;;;3.70;;
1214;SDS011;597;51.998;5.880;2022-07-23T09:00:12;6.10;;;4.20;;
1214;SDS011;597;51.998;5.880;2022-07-23T09:02:38;5.90;;;3.93;;
1214;SDS011;597;51.998;5.880;2022-07-23T09:05:03;4.57;;;3.23;;
1214;SDS011;597;51.998;5.880;2022-07-23T09:07:29;6.70;;;4.10;;
1214;SDS011;597;51.998;5.880;2022-07-23T09:10:10;4.03;;;3.30;;
1214;SDS011;597;51.998;5.880;2022-07-23T09:12:35;5.07;;;3.43;;
1214;SDS011;597;51.998;5.880;2022-07-23T09:15:05;7.27;;;3.80;;
1214;SDS011;597;51.998;5.880;2022-07-23T09:17:36;4.57;;;3.63;;
1214;SDS011;597;51.998;5.880;2022-07-23T09:20:08;4.23;;;2.90;;
1214;SDS011;597;51.998;5.880;2022-07-23T09:22:33;4.60;;;3.00;;
1214;SDS011;597;51.998;5.880;2022-07-23T09:30:18;6.47;;;3.80;;
1214;SDS011;597;51.998;5.880;2022-07-23T09:32:43;9.73;;;4.13;;
1214;SDS011;597;51.998;5.880;2022-07-23T09:35:08;4.00;;;2.90;;
1214;SDS011;597;51.998;5.880;2022-07-23T09:37:34;4.77;;;3.87;;
1214;SDS011;597;51.998;5.880;2022-07-23T09:40:06;3.50;;;3.20;;
1214;SDS011;597;51.998;5.880;2022-07-23T09:42:31;3.07;;;2.77;;
1214;SDS011;597;51.998;5.880;2022-07-23T09:44:58;4.33;;;3.30;;
1214;SDS011;597;51.998;5.880;2022-07-23T09:47:24;5.80;;;3.13;;
1214;SDS011;597;51.998;5.880;2022-07-23T09:52:28;3.10;;;2.80;;
1214;SDS011;597;51.998;5.880;2022-07-23T09:54:58;2.77;;;2.57;;
1214;SDS011;597;51.998;5.880;2022-07-23T09:57:24;9.33;;;2.90;;
1214;SDS011;597;51.998;5.880;2022-07-23T09:59:50;3.37;;;2.93;;
1214;SDS011;597;51.998;5.880;2022-07-23T10:02:15;4.20;;;3.23;;
1214;SDS011;597;51.998;5.880;2022-07-23T10:04:41;5.87;;;3.00;;
1214;SDS011;597;51.998;5.880;2022-07-23T10:07:08;3.50;;;3.07;;
1214;SDS011;597;51.998;5.880;2022-07-23T10:09:39;3.90;;;3.50;;
1214;SDS011;597;51.998;5.880;2022-07-23T10:12:05;5.87;;;3.10;;
1214;SDS011;597;51.998;5.880;2022-07-23T10:14:38;8.53;;;4.13;;
1214;SDS011;597;51.998;5.880;2022-07-23T10:17:03;3.87;;;3.57;;
1214;SDS011;597;51.998;5.880;2022-07-23T10:19:29;4.33;;;3.50;;
1214;SDS011;597;51.998;5.880;2022-07-23T10:21:55;4.63;;;3.50;;
1214;SDS011;597;51.998;5.880;2022-07-23T10:24:30;4.37;;;3.43;;
1214;SDS011;597;51.998;5.880;2022-07-23T10:35:37;5.43;;;3.37;;
1214;SDS011;597;51.998;5.880;2022-07-23T10:38:15;5.53;;;3.43;;
1214;SDS011;597;51.998;5.880;2022-07-23T10:40:53;3.77;;;3.27;;
1214;SDS011;597;51.998;5.880;2022-07-23T10:43:18;5.83;;;3.50;;
1214;SDS011;597;51.998;5.880;2022-07-23T10:45:43;4.70;;;4.00;;
1214;SDS011;597;51.998;5.880;2022-07-23T10:50:37;4.63;;;3.57;;
1214;SDS011;597;51.998;5.880;2022-07-23T10:57:56;5.25;;;3.70;;
1214;SDS011;597;51.998;5.880;2022-07-23T11:00:22;8.77;;;4.00;;
1214;SDS011;597;51.998;5.880;2022-07-23T11:02:49;3.73;;;3.00;;
1214;SDS011;597;51.998;5.880;2022-07-23T11:05:16;3.80;;;3.10;;
1214;SDS011;597;51.998;5.880;2022-07-23T11:11:07;3.70;;;3.30;;
1214;SDS011;597;51.998;5.880;2022-07-23T11:32:05;3.40;;;2.90;;
1214;SDS011;597;51.998;5.880;2022-07-23T11:34:40;5.30;;;3.30;;
1214;SDS011;597;51.998;5.880;2022-07-23T11:37:07;6.13;;;3.27;;
1214;SDS011;597;51.998;5.880;2022-07-23T11:39:32;3.30;;;3.00;;
1214;SDS011;597;51.998;5.880;2022-07-23T11:41:58;3.90;;;3.10;;
1214;SDS011;597;51.998;5.880;2022-07-23T11:44:27;3.87;;;3.17;;
1214;SDS011;597;51.998;5.880;2022-07-23T11:49:21;4.20;;;3.80;;
1214;SDS011;597;51.998;5.880;2022-07-23T11:51:46;5.73;;;4.27;;
1214;SDS011;597;51.998;5.880;2022-07-23T11:54:11;4.13;;;3.50;;
1214;SDS011;597;51.998;5.880;2022-07-23T11:56:37;6.50;;;3.70;;
1214;SDS011;597;51.998;5.880;2022-07-23T11:59:02;3.60;;;3.30;;
1214;SDS011;597;51.998;5.880;2022-07-23T12:01:27;4.83;;;3.70;;
1214;SDS011;597;51.998;5.880;2022-07-23T12:03:52;4.70;;;3.57;;
1214;SDS011;597;51.998;5.880;2022-07-23T12:06:18;3.73;;;3.17;;
1214;SDS011;597;51.998;5.880;2022-07-23T12:08:43;4.20;;;2.97;;
1214;SDS011;597;51.998;5.880;2022-07-23T12:11:08;3.97;;;3.27;;
1214;SDS011;597;51.998;5.880;2022-07-23T12:13:36;4.63;;;3.17;;
1214;SDS011;597;51.998;5.880;2022-07-23T12:16:02;3.13;;;2.83;;
1214;SDS011;597;51.998;5.880;2022-07-23T12:18:27;3.20;;;2.87;;
1214;SDS011;597;51.998;5.880;2022-07-23T12:20:54;7.70;;;3.60;;
1214;SDS011;597;51.998;5.880;2022-07-23T12:23:22;3.73;;;3.30;;
1214;SDS011;597;51.998;5.880;2022-07-23T12:25:48;4.50;;;3.60;;
1214;SDS011;597;51.998;5.880;2022-07-23T12:28:21;4.10;;;2.93;;
1214;SDS011;597;51.998;5.880;2022-07-23T12:33:13;6.00;;;3.20;;
1214;SDS011;597;51.998;5.880;2022-07-23T12:35:39;3.43;;;3.13;;
1214;SDS011;597;51.998;5.880;2022-07-23T12:38:13;7.23;;;2.80;;
1214;SDS011;597;51.998;5.880;2022-07-23T12:48:25;3.23;;;2.80;;
1214;SDS011;597;51.998;5.880;2022-07-23T12:53:27;3.93;;;3.30;;
1214;SDS011;597;51.998;5.880;2022-07-23T12:55:57;5.10;;;3.40;;
1214;SDS011;597;51.998;5.880;2022-07-23T12:58:24;4.43;;;2.87;;
1214;SDS011;597;51.998;5.880;2022-07-23T13:00:51;3.70;;;2.90;;
1214;SDS011;597;51.998;5.880;2022-07-23T13:05:54;4.00;;;2.87;;
1214;SDS011;597;51.998;5.880;2022-07-23T13:08:19;3.13;;;2.80;;
1214;SDS011;597;51.998;5.880;2022-07-23T13:10:45;5.10;;;3.20;;
1214;SDS011;597;51.998;5.880;2022-07-23T13:13:13;3.90;;;2.90;;
1214;SDS011;597;51.998;5.880;2022-07-23T13:15:38;3.80;;;2.57;;
1214;SDS011;597;51.998;5.880;2022-07-23T13:18:03;5.77;;;3.77;;
1214;SDS011;597;51.998;5.880;2022-07-23T13:20:29;3.53;;;3.20;;
1214;SDS011;597;51.998;5.880;2022-07-23T13:22:56;6.23;;;3.87;;
1214;SDS011;597;51.998;5.880;2022-07-23T13:25:22;3.27;;;2.97;;
1214;SDS011;597;51.998;5.880;2022-07-23T13:27:47;6.53;;;3.03;;
1214;SDS011;597;51.998;5.880;2022-07-23T13:30:12;3.83;;;3.07;;
1214;SDS011;597;51.998;5.880;2022-07-23T13:32:37;3.30;;;2.83;;
1214;SDS011;597;51.998;5.880;2022-07-23T13:35:03;3.70;;;3.40;;
1214;SDS011;597;51.998;5.880;2022-07-23T13:37:28;4.80;;;2.53;;
1214;SDS011;597;51.998;5.880;2022-07-23T13:39:53;4.07;;;2.97;;
1214;SDS011;597;51.998;5.880;2022-07-23T13:42:19;3.10;;;2.80;;
1214;SDS011;597;51.998;5.880;2022-07-23T13:44:44;3.93;;;2.73;;
1214;SDS011;597;51.998;5.880;2022-07-23T13:47:09;5.87;;;3.30;;
1214;SDS011;597;51.998;5.880;2022-07-23T13:49:34;7.83;;;3.53;;
1214;SDS011;597;51.998;5.880;2022-07-23T13:51:59;4.07;;;3.40;;
1214;SDS011;597;51.998;5.880;2022-07-23T13:54:25;3.33;;;3.03;;
1214;SDS011;597;51.998;5.880;2022-07-23T13:56:50;3.37;;;2.93;;
1214;SDS011;597;51.998;5.880;2022-07-23T13:59:16;4.70;;;3.20;;
1214;SDS011;597;51.998;5.880;2022-07-23T14:01:41;4.57;;;3.43;;
1214;SDS011;597;51.998;5.880;2022-07-23T14:04:07;3.40;;;2.83;;
1214;SDS011;597;51.998;5.880;2022-07-23T14:06:32;4.90;;;3.17;;
1214;SDS011;597;51.998;5.880;2022-07-23T14:08:57;3.20;;;2.90;;
1214;SDS011;597;51.998;5.880;2022-07-23T14:11:22;4.60;;;2.83;;
1214;SDS011;597;51.998;5.880;2022-07-23T14:13:47;3.33;;;2.80;;
1214;SDS011;597;51.998;5.880;2022-07-23T14:16:13;5.40;;;3.10;;
1214;SDS011;597;51.998;5.880;2022-07-23T14:18:38;7.23;;;3.70;;
1214;SDS011;597;51.998;5.880;2022-07-23T14:21:03;4.20;;;3.00;;
1214;SDS011;597;51.998;5.880;2022-07-23T14:23:28;3.50;;;3.20;;
1214;SDS011;597;51.998;5.880;2022-07-23T14:25:53;3.00;;;2.80;;
1214;SDS011;597;51.998;5.880;2022-07-23T14:28:19;6.60;;;2.80;;
1214;SDS011;597;51.998;5.880;2022-07-23T14:30:44;7.70;;;3.80;;
1214;SDS011;597;51.998;5.880;2022-07-23T14:33:09;3.20;;;2.83;;
1214;SDS011;597;51.998;5.880;2022-07-23T14:35:34;3.60;;;3.30;;
1214;SDS011;597;51.998;5.880;2022-07-23T14:37:59;7.53;;;3.20;;
1214;SDS011;597;51.998;5.880;2022-07-23T14:40:25;5.40;;;3.70;;
1214;SDS011;597;51.998;5.880;2022-07-23T14:42:50;5.20;;;3.73;;
1214;SDS011;597;51.998;5.880;2022-07-23T14:45:15;5.73;;;3.50;;
1214;SDS011;597;51.998;5.880;2022-07-23T14:47:40;4.87;;;3.43;;
1214;SDS011;597;51.998;5.880;2022-07-23T14:50:06;4.20;;;3.80;;
1214;SDS011;597;51.998;5.880;2022-07-23T14:52:31;4.73;;;3.63;;
1214;SDS011;597;51.998;5.880;2022-07-23T14:54:56;4.17;;;3.87;;
1214;SDS011;597;51.998;5.880;2022-07-23T14:57:21;3.50;;;3.20;;
1214;SDS011;597;51.998;5.880;2022-07-23T14:59:47;4.13;;;3.20;;
1214;SDS011;597;51.998;5.880;2022-07-23T15:02:12;4.77;;;3.60;;
1214;SDS011;597;51.998;5.880;2022-07-23T15:04:37;3.53;;;3.23;;
1214;SDS011;597;51.998;5.880;2022-07-23T15:07:03;5.47;;;3.97;;
1214;SDS011;597;51.998;5.880;2022-07-23T15:09:28;3.27;;;3.03;;
1214;SDS011;597;51.998;5.880;2022-07-23T15:11:53;4.83;;;3.40;;
1214;SDS011;597;51.998;5.880;2022-07-23T15:14:18;4.97;;;3.37;;
1214;SDS011;597;51.998;5.880;2022-07-23T15:16:43;4.00;;;3.70;;
1214;SDS011;597;51.998;5.880;2022-07-23T15:19:09;4.00;;;3.60;;
1214;SDS011;597;51.998;5.880;2022-07-23T15:21:34;4.40;;;3.43;;
1214;SDS011;597;51.998;5.880;2022-07-23T15:23:59;3.23;;;2.93;;
1214;SDS011;597;51.998;5.880;2022-07-23T15:26:25;3.57;;;3.27;;
1214;SDS011;597;51.998;5.880;2022-07-23T15:28:50;6.60;;;4.40;;
1214;SDS011;597;51.998;5.880;2022-07-23T15:31:16;4.37;;;3.97;;
1214;SDS011;597;51.998;5.880;2022-07-23T15:33:41;4.90;;;4.20;;
1214;SDS011;597;51.998;5.880;2022-07-23T15:36:06;7.40;;;3.90;;
1214;SDS011;597;51.998;5.880;2022-07-23T15:38:32;4.07;;;3.67;;
1214;SDS011;597;51.998;5.880;2022-07-23T15:40:57;3.87;;;3.23;;
1214;SDS011;597;51.998;5.880;2022-07-23T15:43:23;3.60;;;3.30;;
1214;SDS011;597;51.998;5.880;2022-07-23T15:45:49;3.73;;;3.37;;
1214;SDS011;597;51.998;5.880;2022-07-23T15:48:14;5.93;;;3.60;;
1214;SDS011;597;51.998;5.880;2022-07-23T15:50:39;4.63;;;3.27;;
1214;SDS011;597;51.998;5.880;2022-07-23T15:53:05;4.20;;;3.80;;
1214;SDS011;597;51.998;5.880;2022-07-23T15:55:30;5.27;;;3.37;;
1214;SDS011;597;51.998;5.880;2022-07-23T15:57:55;3.03;;;2.83;;
1214;SDS011;597;51.998;5.880;2022-07-23T16:00:21;4.90;;;3.60;;
1214;SDS011;597;51.998;5.880;2022-07-23T16:02:46;4.40;;;3.33;;
1214;SDS011;597;51.998;5.880;2022-07-23T16:05:11;3.77;;;3.47;;
1214;SDS011;597;51.998;5.880;2022-07-23T16:07:37;3.93;;;3.60;;
1214;SDS011;597;51.998;5.880;2022-07-23T16:10:05;4.17;;;3.77;;
1214;SDS011;597;51.998;5.880;2022-07-23T16:12:31;3.93;;;3.50;;
1214;SDS011;597;51.998;5.880;2022-07-23T16:14:56;4.50;;;3.60;;
1214;SDS011;597;51.998;5.880;2022-07-23T16:17:21;4.27;;;3.13;;
1214;SDS011;597;51.998;5.880;2022-07-23T16:19:47;4.33;;;3.00;;
1214;SDS011;597;51.998;5.880;2022-07-23T16:22:12;6.07;;;3.60;;